Time;durP1;ratioP1;P1;durP2;ratioP2;P2;SDS_P1;SDS_P2;PMS_P1;PMS_P2;Temp;Humidity;BMP_temperature;BMP_pressure;BME280_temperature;BME280_humidity;BME280_pressure;Samples;Min_cycle;Max_cycle;Signal;HPM_P1;HPM_P2
2020/12/28 00:01:26;;;;;;;;;;;19.40;39.50;;;;;;491798;240;987;-53
2020/12/28 00:03:28;;;;;;;;;;;19.40;39.50;;;;;;491645;240;997;-53
2020/12/28 00:05:29;;;;;;;;;;;19.40;39.50;;;;;;491688;240;1187;-53
2020/12/28 00:07:30;;;;;;;;;;;19.40;39.50;;;;;;491657;240;1068;-53
2020/12/28 00:09:32;;;;;;;;;;;19.40;39.50;;;;;;491910;240;1144;-53
2020/12/28 00:11:33;;;;;;;;;;;19.40;39.50;;;;;;491778;240;1200;-54
2020/12/28 00:13:34;;;;;;;;;;;19.40;39.40;;;;;;491729;240;1021;-53
2020/12/28 00:15:35;;;;;;;;;;;19.40;39.40;;;;;;491702;240;1091;-52
2020/12/28 00:17:37;;;;;;;;;;;19.50;39.50;;;;;;492001;240;960;-53
2020/12/28 00:19:38;;;;;;;;;;;19.50;39.40;;;;;;491599;240;2188;-53
2020/12/28 00:21:39;;;;;;;;;;;19.50;39.40;;;;;;491693;240;1151;-53
2020/12/28 00:23:40;;;;;;;;;;;19.50;39.40;;;;;;491691;240;1234;-53
2020/12/28 00:25:42;;;;;;;;;;;19.50;39.40;;;;;;491597;240;1059;-53
2020/12/28 00:27:43;;;;;;;;;;;19.50;39.40;;;;;;491617;240;1091;-53
2020/12/28 00:29:46;;;;;;;;;;;19.50;39.40;;;;;;491725;240;952;-53
2020/12/28 00:31:47;;;;;;;;;;;19.50;39.40;;;;;;491742;240;971;-53
2020/12/28 00:33:48;;;;;;;;;;;19.50;39.30;;;;;;491635;240;1101;-53
2020/12/28 00:35:50;;;;;;;;;;;19.50;39.30;;;;;;491619;240;1226;-54
2020/12/28 00:37:51;;;;;;;;;;;19.50;39.40;;;;;;491701;240;1084;-53
2020/12/28 00:39:52;;;;;;;;;;;19.50;39.30;;;;;;491734;240;2136;-53
2020/12/28 00:41:53;;;;;;;;;;;19.50;39.30;;;;;;491622;240;1087;-53
2020/12/28 00:43:55;;;;;;;;;;;19.60;39.30;;;;;;491662;240;1059;-53
2020/12/28 00:45:56;;;;;;;;;;;19.60;39.30;;;;;;491596;240;1504;-53
2020/12/28 00:47:57;;;;;;;;;;;19.60;39.30;;;;;;491724;240;1023;-53
2020/12/28 00:49:59;;;;;;;;;;;19.60;39.20;;;;;;491746;240;1317;-53
2020/12/28 00:52:00;;;;;;;;;;;19.60;39.30;;;;;;491704;240;1190;-53
2020/12/28 00:54:01;;;;;;;;;;;19.60;39.30;;;;;;491679;240;1021;-53
2020/12/28 00:56:03;;;;;;;;;;;19.60;39.20;;;;;;491562;240;1285;-53
2020/12/28 00:58:04;;;;;;;;;;;19.60;39.20;;;;;;491607;240;1003;-53
2020/12/28 01:00:05;;;;;;;;;;;19.60;39.20;;;;;;491748;240;2128;-53
2020/12/28 01:02:07;;;;;;;;;;;19.60;39.20;;;;;;491777;240;1043;-53
2020/12/28 01:04:08;;;;;;;;;;;19.60;39.20;;;;;;491867;240;1067;-52
2020/12/28 01:06:09;;;;;;;;;;;19.60;39.20;;;;;;491850;238;1295;-53
2020/12/28 01:08:10;;;;;;;;;;;19.60;39.20;;;;;;491726;240;1050;-53
2020/12/28 01:10:12;;;;;;;;;;;19.60;39.10;;;;;;491707;240;1029;-53
2020/12/28 01:12:13;;;;;;;;;;;19.60;39.20;;;;;;491468;240;1037;-53
2020/12/28 01:14:14;;;;;;;;;;;19.60;39.10;;;;;;491770;240;1075;-53
2020/12/28 01:16:16;;;;;;;;;;;19.60;39.20;;;;;;491703;240;1075;-53
2020/12/28 01:18:17;;;;;;;;;;;19.60;39.20;;;;;;491623;240;1023;-53
2020/12/28 01:20:18;;;;;;;;;;;19.70;39.20;;;;;;491748;240;2141;-53
2020/12/28 01:22:19;;;;;;;;;;;19.60;39.20;;;;;;491712;240;1179;-54
2020/12/28 01:24:21;;;;;;;;;;;19.70;39.20;;;;;;491661;240;1086;-53
2020/12/28 01:26:22;;;;;;;;;;;19.70;39.20;;;;;;491615;240;1070;-53
2020/12/28 01:28:23;;;;;;;;;;;19.70;39.20;;;;;;491710;240;964;-53
2020/12/28 01:30:25;;;;;;;;;;;19.70;39.20;;;;;;491674;240;972;-52
2020/12/28 01:32:26;;;;;;;;;;;19.70;39.20;;;;;;491589;240;1101;-53
2020/12/28 01:34:27;;;;;;;;;;;19.70;39.20;;;;;;491701;240;1096;-53
2020/12/28 01:36:28;;;;;;;;;;;19.70;39.20;;;;;;491812;240;1181;-53
2020/12/28 01:38:30;;;;;;;;;;;19.70;39.10;;;;;;491671;240;1205;-53
2020/12/28 01:40:31;;;;;;;;;;;19.70;39.10;;;;;;491832;240;2141;-53
2020/12/28 01:42:32;;;;;;;;;;;19.70;39.10;;;;;;491628;240;1082;-53
2020/12/28 01:44:33;;;;;;;;;;;19.70;39.10;;;;;;491551;240;1057;-53
2020/12/28 01:46:35;;;;;;;;;;;19.70;39.20;;;;;;491577;240;1095;-53
2020/12/28 01:48:36;;;;;;;;;;;19.70;39.10;;;;;;491616;240;1091;-53
2020/12/28 01:50:37;;;;;;;;;;;19.70;39.10;;;;;;491707;240;1254;-53
2020/12/28 01:52:39;;;;;;;;;;;19.70;39.10;;;;;;491651;240;1290;-53
2020/12/28 01:54:40;;;;;;;;;;;19.70;39.10;;;;;;491824;240;998;-53
2020/12/28 01:56:41;;;;;;;;;;;19.70;39.10;;;;;;491752;240;1175;-53
2020/12/28 01:58:42;;;;;;;;;;;19.70;39.10;;;;;;491593;240;1076;-53
2020/12/28 02:00:44;;;;;;;;;;;19.80;39.10;;;;;;491663;240;2132;-53
2020/12/28 02:02:45;;;;;;;;;;;19.80;39.10;;;;;;491631;240;1326;-53
2020/12/28 02:04:46;;;;;;;;;;;19.80;39.10;;;;;;491504;240;1216;-53
2020/12/28 02:06:47;;;;;;;;;;;19.70;39.00;;;;;;491650;240;1239;-53
2020/12/28 02:08:49;;;;;;;;;;;19.80;39.00;;;;;;491627;240;1014;-53
2020/12/28 02:10:50;;;;;;;;;;;19.80;39.10;;;;;;491616;240;1041;-53
2020/12/28 02:12:51;;;;;;;;;;;19.80;39.10;;;;;;491653;240;1038;-53
2020/12/28 02:14:53;;;;;;;;;;;19.80;39.00;;;;;;491623;240;1059;-53
2020/12/28 02:16:54;;;;;;;;;;;19.80;39.10;;;;;;491852;240;1064;-53
2020/12/28 02:18:55;;;;;;;;;;;19.80;39.00;;;;;;491704;240;1098;-53
2020/12/28 02:20:56;;;;;;;;;;;19.80;37.80;;;;;;491695;240;2125;-54
2020/12/28 02:22:58;;;;;;;;;;;19.80;39.10;;;;;;491659;240;1206;-53
2020/12/28 02:25:02;;;;;;;;;;;19.80;39.10;;;;;;491641;240;1208;-53
2020/12/28 02:27:04;;;;;;;;;;;19.80;39.00;;;;;;491662;240;957;-53
2020/12/28 02:29:06;;;;;;;;;;;19.80;39.00;;;;;;491654;240;983;-53
2020/12/28 02:31:07;;;;;;;;;;;19.80;39.00;;;;;;491852;240;930;-53
2020/12/28 02:33:11;;;;;;;;;;;19.80;39.00;;;;;;491591;240;1081;-53
2020/12/28 02:35:12;;;;;;;;;;;19.80;39.00;;;;;;491645;240;1012;-54
2020/12/28 02:37:13;;;;;;;;;;;19.80;39.00;;;;;;491708;240;1213;-53
2020/12/28 02:39:15;;;;;;;;;;;19.80;39.00;;;;;;491769;240;1059;-53
2020/12/28 02:41:16;;;;;;;;;;;19.80;39.00;;;;;;491497;240;2196;-53
2020/12/28 02:43:17;;;;;;;;;;;19.80;38.90;;;;;;491729;240;1031;-53
2020/12/28 02:45:18;;;;;;;;;;;19.90;39.00;;;;;;491711;240;1081;-53
2020/12/28 02:47:20;;;;;;;;;;;19.80;38.90;;;;;;491521;240;954;-54
2020/12/28 02:49:21;;;;;;;;;;;19.80;39.00;;;;;;491672;240;1061;-52
2020/12/28 02:51:22;;;;;;;;;;;19.80;39.00;;;;;;491670;240;1066;-53
2020/12/28 02:53:24;;;;;;;;;;;19.80;38.90;;;;;;491625;240;1189;-53
2020/12/28 02:55:25;;;;;;;;;;;19.90;39.00;;;;;;491728;240;973;-53
2020/12/28 02:57:26;;;;;;;;;;;19.80;38.90;;;;;;491803;240;1050;-53
2020/12/28 02:59:27;;;;;;;;;;;19.90;38.90;;;;;;491832;240;1021;-54
2020/12/28 03:01:29;;;;;;;;;;;19.80;38.90;;;;;;491753;240;2129;-53
2020/12/28 03:03:30;;;;;;;;;;;19.90;38.90;;;;;;491706;240;1198;-53
2020/12/28 03:05:31;;;;;;;;;;;19.90;38.90;;;;;;491852;240;1220;-53
2020/12/28 03:07:32;;;;;;;;;;;19.90;38.90;;;;;;491637;240;1535;-53
2020/12/28 03:09:34;;;;;;;;;;;19.90;38.90;;;;;;491872;240;1135;-53
2020/12/28 03:11:35;;;;;;;;;;;19.90;38.90;;;;;;491661;240;1141;-53
2020/12/28 03:13:36;;;;;;;;;;;19.90;38.90;;;;;;491550;240;989;-53
2020/12/28 03:15:38;;;;;;;;;;;19.90;38.80;;;;;;491613;240;1355;-53
2020/12/28 03:17:39;;;;;;;;;;;19.90;38.80;;;;;;491685;240;1096;-53
2020/12/28 03:19:40;;;;;;;;;;;19.90;38.80;;;;;;491661;240;1047;-53
2020/12/28 03:21:41;;;;;;;;;;;19.90;38.80;;;;;;491646;240;2128;-53
2020/12/28 03:23:43;;;;;;;;;;;19.90;38.80;;;;;;491695;240;1151;-53
2020/12/28 03:25:44;;;;;;;;;;;19.90;38.80;;;;;;491745;240;1039;-54
2020/12/28 03:27:45;;;;;;;;;;;19.90;38.80;;;;;;491653;240;1100;-53
2020/12/28 03:29:46;;;;;;;;;;;19.90;38.90;;;;;;491788;240;1052;-53
2020/12/28 03:31:48;;;;;;;;;;;19.90;38.80;;;;;;491706;240;1043;-53
2020/12/28 03:33:49;;;;;;;;;;;19.90;38.80;;;;;;491729;240;1022;-53
2020/12/28 03:35:50;;;;;;;;;;;19.90;38.80;;;;;;491558;240;1341;-53
2020/12/28 03:37:52;;;;;;;;;;;19.90;38.80;;;;;;491703;238;1305;-53
2020/12/28 03:39:53;;;;;;;;;;;19.90;38.70;;;;;;491662;240;1227;-53
2020/12/28 03:41:54;;;;;;;;;;;19.90;38.80;;;;;;491724;240;2140;-53
2020/12/28 03:43:55;;;;;;;;;;;19.90;38.80;;;;;;491618;240;1222;-53
2020/12/28 03:45:57;;;;;;;;;;;19.90;38.80;;;;;;491612;240;1052;-53
2020/12/28 03:47:59;;;;;;;;;;;19.90;38.70;;;;;;491744;240;948;-53
2020/12/28 03:49:59;;;;;;;;;;;20.00;38.80;;;;;;491599;240;1957;-53
2020/12/28 03:52:00;;;;;;;;;;;19.90;38.80;;;;;;491656;240;1128;-53
2020/12/28 03:54:02;;;;;;;;;;;20.00;39.10;;;;;;491688;240;1211;-53
2020/12/28 03:56:03;;;;;;;;;;;20.10;39.00;;;;;;491792;240;979;-53
2020/12/28 03:58:04;;;;;;;;;;;20.10;38.80;;;;;;491997;240;1035;-53
2020/12/28 04:00:06;;;;;;;;;;;20.10;38.70;;;;;;491663;240;1083;-53
2020/12/28 04:02:07;;;;;;;;;;;20.00;38.70;;;;;;491593;240;2188;-53
2020/12/28 04:04:08;;;;;;;;;;;20.00;38.80;;;;;;491911;240;936;-53
2020/12/28 04:06:10;;;;;;;;;;;19.90;38.90;;;;;;491824;240;1196;-53
2020/12/28 04:08:11;;;;;;;;;;;19.90;39.00;;;;;;491725;240;1172;-53
2020/12/28 04:10:12;;;;;;;;;;;19.90;39.10;;;;;;491642;240;1065;-53
2020/12/28 04:12:13;;;;;;;;;;;19.80;39.10;;;;;;491580;240;1334;-53
2020/12/28 04:14:15;;;;;;;;;;;19.80;39.20;;;;;;491679;240;1103;-53
2020/12/28 04:16:16;;;;;;;;;;;19.80;39.30;;;;;;491656;240;1040;-53
2020/12/28 04:18:17;;;;;;;;;;;19.70;39.40;;;;;;491822;240;1186;-53
2020/12/28 04:20:18;;;;;;;;;;;19.60;38.10;;;;;;491663;240;1121;-53
2020/12/28 04:22:20;;;;;;;;;;;19.60;39.50;;;;;;491547;240;2124;-53
2020/12/28 04:24:21;;;;;;;;;;;19.60;39.60;;;;;;491538;240;1141;-52
2020/12/28 04:26:22;;;;;;;;;;;19.50;39.60;;;;;;491657;240;1046;-53
2020/12/28 04:28:23;;;;;;;;;;;19.50;39.60;;;;;;491816;240;1053;-53
2020/12/28 04:30:25;;;;;;;;;;;19.40;39.60;;;;;;491909;240;1036;-53
2020/12/28 04:32:26;;;;;;;;;;;19.40;39.70;;;;;;491504;240;1087;-53
2020/12/28 04:34:27;;;;;;;;;;;19.40;39.80;;;;;;491867;240;1052;-53
2020/12/28 04:36:29;;;;;;;;;;;19.40;39.80;;;;;;491648;240;969;-53
2020/12/28 04:38:30;;;;;;;;;;;19.30;39.90;;;;;;491817;239;1302;-53
2020/12/28 04:40:31;;;;;;;;;;;19.30;39.90;;;;;;491674;240;1021;-53
2020/12/28 04:42:32;;;;;;;;;;;19.30;39.90;;;;;;491623;240;2188;-53
2020/12/28 04:44:34;;;;;;;;;;;19.30;40.00;;;;;;491634;240;1043;-53
2020/12/28 04:46:35;;;;;;;;;;;19.20;40.00;;;;;;491647;240;950;-53
2020/12/28 04:48:36;;;;;;;;;;;19.20;40.00;;;;;;491652;240;1121;-53
2020/12/28 04:50:37;;;;;;;;;;;19.20;40.10;;;;;;491669;240;1013;-53
2020/12/28 04:52:39;;;;;;;;;;;19.20;40.20;;;;;;491648;240;1235;-53
2020/12/28 04:54:40;;;;;;;;;;;19.10;40.10;;;;;;491699;240;1175;-53
2020/12/28 04:56:42;;;;;;;;;;;19.10;40.20;;;;;;491618;240;971;-52
2020/12/28 04:58:43;;;;;;;;;;;19.10;40.20;;;;;;491682;240;1106;-53
2020/12/28 05:00:44;;;;;;;;;;;19.10;40.30;;;;;;491718;240;1025;-52
2020/12/28 05:02:45;;;;;;;;;;;19.10;40.30;;;;;;491702;240;2125;-53
2020/12/28 05:04:47;;;;;;;;;;;19.00;40.30;;;;;;491637;240;1069;-53
2020/12/28 05:06:48;;;;;;;;;;;19.00;40.30;;;;;;491664;240;1414;-53
2020/12/28 05:08:49;;;;;;;;;;;19.00;40.40;;;;;;491633;240;1123;-53
2020/12/28 05:10:51;;;;;;;;;;;19.00;40.40;;;;;;491692;240;1585;-53
2020/12/28 05:12:52;;;;;;;;;;;18.90;40.40;;;;;;491645;240;1067;-53
2020/12/28 05:14:53;;;;;;;;;;;19.00;40.40;;;;;;491681;240;1068;-52
2020/12/28 05:16:54;;;;;;;;;;;18.90;40.40;;;;;;491610;240;1536;-53
2020/12/28 05:18:56;;;;;;;;;;;18.90;40.40;;;;;;491699;240;1022;-53
2020/12/28 05:20:57;;;;;;;;;;;18.90;40.50;;;;;;491508;240;1174;-53
2020/12/28 05:22:58;;;;;;;;;;;18.90;40.50;;;;;;491607;240;2192;-53
2020/12/28 05:24:59;;;;;;;;;;;18.80;40.50;;;;;;491783;240;1199;-53
2020/12/28 05:27:01;;;;;;;;;;;18.80;40.50;;;;;;491612;240;1399;-53
2020/12/28 05:29:02;;;;;;;;;;;18.80;40.50;;;;;;491632;240;1196;-53
2020/12/28 05:31:03;;;;;;;;;;;18.80;40.60;;;;;;491789;240;1253;-53
2020/12/28 05:33:05;;;;;;;;;;;18.80;40.60;;;;;;491587;240;1169;-53
2020/12/28 05:35:06;;;;;;;;;;;18.80;40.60;;;;;;491609;240;1093;-53
2020/12/28 05:37:07;;;;;;;;;;;18.80;40.60;;;;;;491622;240;1044;-53
2020/12/28 05:39:08;;;;;;;;;;;18.80;40.60;;;;;;491662;240;1163;-53
2020/12/28 05:41:10;;;;;;;;;;;18.80;40.60;;;;;;491753;240;1029;-52
2020/12/28 05:43:11;;;;;;;;;;;18.80;40.70;;;;;;491821;240;1002;-53
2020/12/28 05:45:12;;;;;;;;;;;18.70;40.60;;;;;;491702;240;1247;-53
2020/12/28 05:47:14;;;;;;;;;;;18.70;40.60;;;;;;491699;240;1234;-52
2020/12/28 05:49:15;;;;;;;;;;;18.70;40.60;;;;;;491732;240;1024;-53
2020/12/28 05:51:17;;;;;;;;;;;18.70;40.70;;;;;;491787;240;1303;-52
2020/12/28 05:53:18;;;;;;;;;;;18.70;40.70;;;;;;491636;240;1319;-53
2020/12/28 05:55:19;;;;;;;;;;;18.70;40.70;;;;;;491626;240;1154;-53
2020/12/28 05:57:20;;;;;;;;;;;18.70;40.70;;;;;;491584;240;1172;-52
2020/12/28 05:59:22;;;;;;;;;;;18.70;40.70;;;;;;491666;240;1200;-52
2020/12/28 06:01:23;;;;;;;;;;;18.70;40.70;;;;;;491461;240;2183;-53
2020/12/28 06:03:25;;;;;;;;;;;18.70;40.80;;;;;;491609;240;1248;-53
2020/12/28 06:05:26;;;;;;;;;;;18.70;40.70;;;;;;491723;240;1189;-53
2020/12/28 06:07:27;;;;;;;;;;;18.60;40.70;;;;;;491833;240;1180;-53
2020/12/28 06:09:28;;;;;;;;;;;18.60;40.70;;;;;;491731;240;1190;-53
2020/12/28 06:11:30;;;;;;;;;;;18.70;40.80;;;;;;491593;240;1285;-53
2020/12/28 06:13:31;;;;;;;;;;;18.60;40.70;;;;;;491578;240;1058;-53
2020/12/28 06:15:32;;;;;;;;;;;18.60;40.70;;;;;;491684;240;1247;-53
2020/12/28 06:17:33;;;;;;;;;;;18.60;40.70;;;;;;491652;240;1119;-53
2020/12/28 06:19:35;;;;;;;;;;;18.60;40.70;;;;;;491942;240;1024;-53
2020/12/28 06:21:36;;;;;;;;;;;18.60;40.70;;;;;;491595;240;2192;-53
2020/12/28 06:23:38;;;;;;;;;;;18.60;40.70;;;;;;491670;240;1101;-53
2020/12/28 06:25:39;;;;;;;;;;;18.60;40.70;;;;;;491735;240;1238;-53
2020/12/28 06:27:40;;;;;;;;;;;18.60;40.80;;;;;;491793;240;1146;-53
2020/12/28 06:29:42;;;;;;;;;;;18.60;40.80;;;;;;491799;240;959;-53
2020/12/28 06:31:43;;;;;;;;;;;18.50;40.70;;;;;;491559;240;1185;-53
2020/12/28 06:33:44;;;;;;;;;;;18.60;40.80;;;;;;491660;240;1052;-52
2020/12/28 06:35:46;;;;;;;;;;;18.50;40.70;;;;;;491796;240;1039;-53
2020/12/28 06:37:48;;;;;;;;;;;18.50;40.80;;;;;;492007;240;1267;-53
2020/12/28 06:39:49;;;;;;;;;;;18.50;40.80;;;;;;491732;240;2354;-53
2020/12/28 06:41:50;;;;;;;;;;;18.50;40.80;;;;;;491600;240;2121;-53
2020/12/28 06:43:51;;;;;;;;;;;18.50;40.80;;;;;;491643;240;1101;-53
2020/12/28 06:45:53;;;;;;;;;;;18.50;40.80;;;;;;491635;240;1087;-53
2020/12/28 06:47:54;;;;;;;;;;;18.50;40.80;;;;;;491651;240;1109;-53
2020/12/28 06:49:55;;;;;;;;;;;18.50;40.80;;;;;;491794;240;1044;-53
2020/12/28 06:51:57;;;;;;;;;;;18.50;40.80;;;;;;491578;240;1406;-53
2020/12/28 06:53:59;;;;;;;;;;;18.40;40.80;;;;;;491737;240;1775;-53
2020/12/28 06:56:00;;;;;;;;;;;18.50;40.80;;;;;;491533;240;1151;-53
2020/12/28 06:58:01;;;;;;;;;;;18.40;40.80;;;;;;491707;240;1034;-53
2020/12/28 07:00:03;;;;;;;;;;;18.40;40.80;;;;;;492053;240;1035;-53
2020/12/28 07:02:04;;;;;;;;;;;18.40;40.80;;;;;;491671;240;2135;-53
2020/12/28 07:04:05;;;;;;;;;;;18.40;40.80;;;;;;491643;240;1117;-53
2020/12/28 07:06:07;;;;;;;;;;;18.40;40.80;;;;;;491631;240;1053;-53
2020/12/28 07:08:08;;;;;;;;;;;18.40;40.80;;;;;;491706;240;1167;-53
2020/12/28 07:10:09;;;;;;;;;;;18.40;40.80;;;;;;491586;240;1149;-52
2020/12/28 07:12:11;;;;;;;;;;;18.40;40.80;;;;;;491694;240;1211;-53
2020/12/28 07:14:12;;;;;;;;;;;18.40;40.80;;;;;;491726;240;1123;-53
2020/12/28 07:16:13;;;;;;;;;;;18.40;40.80;;;;;;491795;240;1041;-53
2020/12/28 07:18:14;;;;;;;;;;;18.40;40.90;;;;;;491638;240;1244;-53
2020/12/28 07:20:16;;;;;;;;;;;18.40;40.90;;;;;;491703;240;1175;-53
2020/12/28 07:22:17;;;;;;;;;;;18.40;40.90;;;;;;491571;240;2132;-53
2020/12/28 07:24:18;;;;;;;;;;;18.40;40.90;;;;;;491490;240;1343;-53
2020/12/28 07:26:19;;;;;;;;;;;18.40;40.90;;;;;;491563;240;1279;-53
2020/12/28 07:28:21;;;;;;;;;;;18.30;40.80;;;;;;491718;240;1158;-53
2020/12/28 07:30:22;;;;;;;;;;;18.40;40.90;;;;;;491631;240;1067;-53
2020/12/28 07:32:23;;;;;;;;;;;18.30;40.80;;;;;;491581;240;1039;-52
2020/12/28 07:34:25;;;;;;;;;;;18.30;40.80;;;;;;491571;240;1258;-53
2020/12/28 07:36:26;;;;;;;;;;;18.30;40.80;;;;;;491485;240;1130;-52
2020/12/28 07:38:27;;;;;;;;;;;18.30;40.80;;;;;;491609;240;1060;-53
2020/12/28 07:40:28;;;;;;;;;;;18.30;40.80;;;;;;491629;240;1181;-53
2020/12/28 07:42:31;;;;;;;;;;;18.30;40.80;;;;;;491553;240;2187;-53
2020/12/28 07:44:31;;;;;;;;;;;18.30;40.80;;;;;;491521;241;2232;-53
2020/12/28 07:46:32;;;;;;;;;;;18.30;40.80;;;;;;491709;240;1198;-53
2020/12/28 07:48:34;;;;;;;;;;;18.30;40.90;;;;;;491662;240;1226;-53
2020/12/28 07:50:35;;;;;;;;;;;18.30;40.80;;;;;;491700;240;1607;-53
2020/12/28 07:52:36;;;;;;;;;;;18.30;40.80;;;;;;491544;240;1199;-53
2020/12/28 07:54:37;;;;;;;;;;;18.30;40.80;;;;;;491486;240;1079;-53
2020/12/28 07:56:39;;;;;;;;;;;18.30;40.80;;;;;;491423;240;1314;-53
2020/12/28 07:58:40;;;;;;;;;;;18.30;40.90;;;;;;491453;240;1200;-53
2020/12/28 08:00:41;;;;;;;;;;;18.30;40.80;;;;;;491525;240;1236;-53
2020/12/28 08:02:42;;;;;;;;;;;18.30;40.90;;;;;;491656;240;2144;-53
2020/12/28 08:04:44;;;;;;;;;;;18.30;40.80;;;;;;491730;240;1132;-53
2020/12/28 08:06:46;;;;;;;;;;;18.20;40.80;;;;;;491604;240;1452;-53
2020/12/28 08:08:46;;;;;;;;;;;18.30;40.80;;;;;;491490;240;2371;-53
2020/12/28 08:10:48;;;;;;;;;;;18.30;40.70;;;;;;491489;240;1409;-53
2020/12/28 08:12:49;;;;;;;;;;;18.30;40.70;;;;;;491501;240;1266;-53
2020/12/28 08:14:50;;;;;;;;;;;18.30;40.60;;;;;;491810;240;1124;-53
2020/12/28 08:16:51;;;;;;;;;;;18.30;40.50;;;;;;491569;240;1017;-53
2020/12/28 08:18:53;;;;;;;;;;;18.40;40.60;;;;;;491554;240;1010;-53
2020/12/28 08:20:54;;;;;;;;;;;18.40;40.50;;;;;;491636;240;1032;-53
2020/12/28 08:22:55;;;;;;;;;;;18.40;40.50;;;;;;491563;240;2191;-53
2020/12/28 08:24:57;;;;;;;;;;;18.50;40.50;;;;;;491578;240;1060;-53
2020/12/28 08:26:58;;;;;;;;;;;18.40;40.40;;;;;;491508;240;1561;-53
2020/12/28 08:28:59;;;;;;;;;;;18.50;40.40;;;;;;491725;240;968;-53
2020/12/28 08:31:01;;;;;;;;;;;18.50;40.30;;;;;;491712;240;1024;-53
2020/12/28 08:33:02;;;;;;;;;;;18.50;40.30;;;;;;491743;240;1048;-53
2020/12/28 08:35:03;;;;;;;;;;;18.50;40.30;;;;;;491547;240;1069;-53
2020/12/28 08:37:05;;;;;;;;;;;18.50;40.30;;;;;;491540;240;1032;-53
2020/12/28 08:39:06;;;;;;;;;;;18.50;40.20;;;;;;491704;240;2053;-53
2020/12/28 08:41:07;;;;;;;;;;;18.50;40.20;;;;;;491700;238;1364;-53
2020/12/28 08:43:08;;;;;;;;;;;18.60;40.20;;;;;;491521;240;2192;-53
2020/12/28 08:45:10;;;;;;;;;;;18.60;40.10;;;;;;491601;240;1083;-53
2020/12/28 08:47:11;;;;;;;;;;;18.60;40.10;;;;;;491469;240;1345;-53
2020/12/28 08:49:12;;;;;;;;;;;18.60;40.10;;;;;;491757;240;1045;-53
2020/12/28 08:51:14;;;;;;;;;;;18.60;40.10;;;;;;491524;240;1224;-53
2020/12/28 08:53:15;;;;;;;;;;;18.70;40.10;;;;;;491633;240;1085;-53
2020/12/28 08:55:16;;;;;;;;;;;18.70;40.00;;;;;;491608;240;1132;-53
2020/12/28 08:57:18;;;;;;;;;;;18.70;40.00;;;;;;491648;240;1234;-53
2020/12/28 08:59:19;;;;;;;;;;;18.70;40.00;;;;;;491600;240;1303;-53
2020/12/28 09:01:20;;;;;;;;;;;18.70;39.90;;;;;;491512;240;1257;-53
2020/12/28 09:03:21;;;;;;;;;;;18.70;39.90;;;;;;491575;240;2192;-53
2020/12/28 09:05:23;;;;;;;;;;;18.80;39.90;;;;;;491694;240;1033;-53
2020/12/28 09:07:24;;;;;;;;;;;18.80;39.90;;;;;;491521;238;1368;-53
2020/12/28 09:09:25;;;;;;;;;;;18.80;39.80;;;;;;491838;240;1051;-53
2020/12/28 09:11:27;;;;;;;;;;;18.80;39.80;;;;;;491618;240;1156;-53
2020/12/28 09:13:28;;;;;;;;;;;18.80;39.80;;;;;;491594;240;1153;-53
2020/12/28 09:15:29;;;;;;;;;;;18.80;39.80;;;;;;491628;240;1061;-53
2020/12/28 09:17:30;;;;;;;;;;;18.80;39.80;;;;;;491790;240;1319;-53
2020/12/28 09:19:32;;;;;;;;;;;18.90;39.80;;;;;;491911;240;1063;-53
2020/12/28 09:21:33;;;;;;;;;;;18.90;39.80;;;;;;491564;240;1463;-53
2020/12/28 09:23:35;;;;;;;;;;;18.90;39.80;;;;;;491608;240;2132;-53
2020/12/28 09:25:36;;;;;;;;;;;18.90;39.70;;;;;;491575;240;1040;-53
2020/12/28 09:27:37;;;;;;;;;;;18.90;39.70;;;;;;491642;240;1163;-53
2020/12/28 09:29:39;;;;;;;;;;;18.90;39.70;;;;;;491747;240;1108;-53
2020/12/28 09:31:40;;;;;;;;;;;18.90;39.60;;;;;;491693;240;987;-53
2020/12/28 09:33:41;;;;;;;;;;;19.00;39.70;;;;;;491615;240;1068;-53
2020/12/28 09:35:42;;;;;;;;;;;19.00;39.60;;;;;;491619;240;1010;-53
2020/12/28 09:37:44;;;;;;;;;;;19.00;39.60;;;;;;491459;240;1050;-53
2020/12/28 09:39:45;;;;;;;;;;;19.00;39.60;;;;;;491610;240;1164;-53
2020/12/28 09:41:46;;;;;;;;;;;19.00;39.60;;;;;;491697;239;1297;-53
2020/12/28 09:43:47;;;;;;;;;;;19.00;39.50;;;;;;491632;240;2124;-53
2020/12/28 09:45:49;;;;;;;;;;;19.00;39.50;;;;;;491560;240;1014;-53
2020/12/28 09:47:50;;;;;;;;;;;19.00;39.50;;;;;;491527;240;1296;-53
2020/12/28 09:49:52;;;;;;;;;;;19.00;39.50;;;;;;491601;240;1251;-53
2020/12/28 09:51:53;;;;;;;;;;;19.00;39.50;;;;;;491629;240;1258;-53
2020/12/28 09:53:54;;;;;;;;;;;19.10;39.50;;;;;;491516;240;1041;-53
2020/12/28 09:55:56;;;;;;;;;;;19.10;39.50;;;;;;491458;240;1050;-53
2020/12/28 09:57:57;;;;;;;;;;;19.10;39.50;;;;;;491588;240;1156;-53
2020/12/28 09:59:58;;;;;;;;;;;19.10;39.40;;;;;;491495;240;1034;-53
2020/12/28 10:01:59;;;;;;;;;;;19.10;38.10;;;;;;491411;240;1326;-53
2020/12/28 10:04:01;;;;;;;;;;;19.10;39.40;;;;;;491529;240;2136;-53
2020/12/28 10:06:30;;;;;;;;;;;19.10;39.40;;;;;;491484;240;1111;-53
2020/12/28 10:08:04;;;;;;;;;;;19.10;39.40;;;;;;491342;242;1924;-53
2020/12/28 10:10:05;;;;;;;;;;;19.10;39.40;;;;;;491711;240;1104;-53
2020/12/28 10:12:06;;;;;;;;;;;19.20;39.40;;;;;;491633;238;1328;-53
2020/12/28 10:14:07;;;;;;;;;;;19.20;39.30;;;;;;491725;240;1027;-53
2020/12/28 10:16:09;;;;;;;;;;;19.20;39.30;;;;;;491548;240;1044;-53
2020/12/28 10:18:10;;;;;;;;;;;19.20;39.30;;;;;;491509;240;1036;-53
2020/12/28 10:20:11;;;;;;;;;;;19.20;39.30;;;;;;491502;240;1127;-53
2020/12/28 10:22:14;;;;;;;;;;;19.20;39.30;;;;;;491565;240;1057;-53
2020/12/28 10:24:14;;;;;;;;;;;19.20;39.30;;;;;;491543;242;2141;-53
2020/12/28 10:26:15;;;;;;;;;;;19.20;39.30;;;;;;491471;240;1131;-53
2020/12/28 10:28:17;;;;;;;;;;;19.20;39.20;;;;;;491506;240;1187;-53
2020/12/28 10:30:18;;;;;;;;;;;19.30;39.30;;;;;;491441;240;1336;-53
2020/12/28 10:32:19;;;;;;;;;;;19.20;39.20;;;;;;491439;240;1214;-53
2020/12/28 10:34:20;;;;;;;;;;;19.30;39.20;;;;;;491729;240;1038;-53
2020/12/28 10:36:22;;;;;;;;;;;19.30;39.30;;;;;;491423;240;1191;-53
2020/12/28 10:38:23;;;;;;;;;;;19.30;39.20;;;;;;491657;240;1250;-53
2020/12/28 10:40:24;;;;;;;;;;;19.30;39.20;;;;;;491453;240;1206;-53
2020/12/28 10:42:26;;;;;;;;;;;19.30;39.20;;;;;;491393;240;1695;-53
2020/12/28 10:44:27;;;;;;;;;;;19.30;39.20;;;;;;491620;240;2137;-53
2020/12/28 10:46:28;;;;;;;;;;;19.30;39.20;;;;;;491543;240;1177;-53
2020/12/28 10:48:29;;;;;;;;;;;19.30;39.10;;;;;;491607;240;1098;-53
2020/12/28 10:50:31;;;;;;;;;;;19.30;39.10;;;;;;491605;240;1056;-53
2020/12/28 10:52:32;;;;;;;;;;;19.30;39.10;;;;;;491550;240;1204;-53
2020/12/28 10:54:33;;;;;;;;;;;19.30;37.80;;;;;;491568;240;1100;-53
2020/12/28 10:56:35;;;;;;;;;;;19.40;39.10;;;;;;491531;240;1059;-53
2020/12/28 10:58:36;;;;;;;;;;;19.40;39.10;;;;;;491637;240;1180;-53
2020/12/28 11:00:37;;;;;;;;;;;19.40;39.10;;;;;;491653;240;958;-53
2020/12/28 11:02:38;;;;;;;;;;;19.40;39.10;;;;;;491603;240;1115;-53
2020/12/28 11:04:40;;;;;;;;;;;19.40;39.10;;;;;;491580;240;2422;-53
2020/12/28 11:06:41;;;;;;;;;;;19.40;39.10;;;;;;491511;240;1041;-54
2020/12/28 11:08:42;;;;;;;;;;;19.40;39.00;;;;;;491642;240;995;-53
2020/12/28 11:10:43;;;;;;;;;;;19.40;39.00;;;;;;491590;240;1096;-53
2020/12/28 11:12:45;;;;;;;;;;;19.40;39.00;;;;;;491646;240;1177;-53
2020/12/28 11:14:46;;;;;;;;;;;19.40;39.00;;;;;;491410;240;1303;-53
2020/12/28 11:16:47;;;;;;;;;;;19.40;39.00;;;;;;491533;240;1066;-53
2020/12/28 11:18:49;;;;;;;;;;;19.40;39.00;;;;;;491550;240;1182;-53
2020/12/28 11:20:50;;;;;;;;;;;19.40;39.00;;;;;;491556;240;1087;-53
2020/12/28 11:22:51;;;;;;;;;;;19.40;39.00;;;;;;491565;240;1166;-53
2020/12/28 11:24:52;;;;;;;;;;;19.50;39.00;;;;;;491427;240;2128;-53
2020/12/28 11:26:54;;;;;;;;;;;19.40;37.70;;;;;;491514;240;1066;-53
2020/12/28 11:28:55;;;;;;;;;;;19.50;39.00;;;;;;491422;240;1210;-53
2020/12/28 11:30:56;;;;;;;;;;;19.40;37.60;;;;;;491492;240;1150;-53
2020/12/28 11:32:57;;;;;;;;;;;19.50;39.00;;;;;;491462;240;1209;-53
2020/12/28 11:34:59;;;;;;;;;;;19.50;39.00;;;;;;491605;240;1009;-53
2020/12/28 11:37:00;;;;;;;;;;;19.50;38.90;;;;;;491495;240;1049;-53
2020/12/28 11:39:02;;;;;;;;;;;19.50;38.90;;;;;;491489;240;1323;-53
2020/12/28 11:41:03;;;;;;;;;;;19.50;38.90;;;;;;491393;240;1078;-53
2020/12/28 11:43:04;;;;;;;;;;;19.50;38.90;;;;;;491594;240;1136;-53
2020/12/28 11:45:08;;;;;;;;;;;19.50;38.90;;;;;;491487;240;2188;-53
2020/12/28 11:47:08;;;;;;;;;;;19.50;38.90;;;;;;491428;240;1759;-53
2020/12/28 11:49:09;;;;;;;;;;;19.50;38.90;;;;;;491524;240;1001;-53
2020/12/28 11:51:10;;;;;;;;;;;19.50;38.90;;;;;;491573;240;1364;-53
2020/12/28 11:53:12;;;;;;;;;;;19.60;38.90;;;;;;491855;240;1184;-53
2020/12/28 11:55:13;;;;;;;;;;;19.60;38.90;;;;;;491542;240;1104;-53
2020/12/28 11:57:14;;;;;;;;;;;19.50;38.80;;;;;;491502;240;1330;-53